createdAt,value
2017-08-16T00:00:40.108Z,27.3
2017-08-16T00:01:40.846Z,25.3
2017-08-16T00:02:41.614Z,23.7
2017-08-16T00:03:42.398Z,22.9
2017-08-16T00:04:43.139Z,24.5
2017-08-16T00:05:44.188Z,23.7
2017-08-16T00:06:44.919Z,24.9
2017-08-16T00:07:45.653Z,28.6
2017-08-16T00:08:46.403Z,28.9
2017-08-16T00:09:47.190Z,30.0
2017-08-16T00:10:48.001Z,31.6
2017-08-16T00:11:48.814Z,31.1
2017-08-16T00:12:50.005Z,32.6
2017-08-16T00:13:50.745Z,32.5
2017-08-16T00:14:51.550Z,34.5
2017-08-16T00:15:52.294Z,37.0
2017-08-16T00:16:53.120Z,38.0
2017-08-16T00:17:54.192Z,38.6
2017-08-16T00:18:54.940Z,42.0
2017-08-16T00:19:55.732Z,42.0
2017-08-16T00:20:56.512Z,40.0
2017-08-16T00:21:57.322Z,39.8
2017-08-16T00:22:58.129Z,41.7
2017-08-16T00:23:58.880Z,41.3
2017-08-16T00:24:59.681Z,43.5
2017-08-16T00:26:00.413Z,43.6
2017-08-16T00:27:01.162Z,45.4
2017-08-16T00:28:02.356Z,43.4
2017-08-16T00:29:03.091Z,43.4
2017-08-16T00:30:03.832Z,40.3
2017-08-16T00:31:04.574Z,43.1
2017-08-16T00:32:05.331Z,45.0
2017-08-16T00:33:06.160Z,46.2
2017-08-16T00:34:07.186Z,45.6
2017-08-16T00:35:07.929Z,45.6
2017-08-16T00:36:08.679Z,46.4
2017-08-16T00:37:09.498Z,41.5
2017-08-16T00:38:10.240Z,42.0
2017-08-16T00:39:11.276Z,42.8
2017-08-16T00:40:12.013Z,43.3
2017-08-16T00:41:12.812Z,44.1
2017-08-16T00:42:13.631Z,46.7
2017-08-16T00:43:14.439Z,48.7
2017-08-16T00:44:15.578Z,46.9
2017-08-16T00:45:16.328Z,47.4
2017-08-16T00:46:17.069Z,48.4
2017-08-16T00:47:17.810Z,50.3
2017-08-16T00:48:18.548Z,51.4
2017-08-16T00:49:19.489Z,51.7
2017-08-16T00:50:20.230Z,51.4
2017-08-16T00:51:20.991Z,53.7
2017-08-16T00:52:21.824Z,51.7
2017-08-16T00:53:22.569Z,52.7
2017-08-16T00:54:23.628Z,56.7
2017-08-16T00:55:24.419Z,56.2
2017-08-16T00:56:25.163Z,58.2
2017-08-16T00:57:25.963Z,59.3
2017-08-16T00:58:26.734Z,57.1
2017-08-16T00:59:27.822Z,57.3
2017-08-16T01:00:28.609Z,62.6
2017-08-16T01:01:29.350Z,63.5
2017-08-16T01:02:30.108Z,64.3
2017-08-16T01:03:30.910Z,64.5
2017-08-16T01:04:31.862Z,65.1
2017-08-16T01:05:32.700Z,66.4
2017-08-16T01:06:33.428Z,68.8
2017-08-16T01:07:34.176Z,68.7
2017-08-16T01:08:34.984Z,69.0
2017-08-16T01:09:35.986Z,68.7
2017-08-16T01:10:36.806Z,67.7
2017-08-16T01:11:37.551Z,69.2
2017-08-16T01:12:38.361Z,65.4
2017-08-16T01:13:39.102Z,67.8
2017-08-16T01:14:40.391Z,69.9
2017-08-16T01:15:41.222Z,81.0
2017-08-16T01:16:42.019Z,74.4
2017-08-16T01:17:42.760Z,71.4
2017-08-16T01:18:43.500Z,79.0
2017-08-16T01:19:44.449Z,82.3
2017-08-16T01:20:45.251Z,74.4
2017-08-16T01:21:45.991Z,77.6
2017-08-16T01:22:46.808Z,89.2
2017-08-16T01:23:47.559Z,92.9
2017-08-16T01:24:48.499Z,89.2
2017-08-16T01:25:49.256Z,85.7
2017-08-16T01:26:49.990Z,81.8
2017-08-16T01:27:50.814Z,84.1
2017-08-16T01:28:51.553Z,86.2
2017-08-16T01:29:52.572Z,81.9
2017-08-16T01:30:53.386Z,84.3
2017-08-16T01:31:54.131Z,82.6
2017-08-16T01:32:54.870Z,87.3
2017-08-16T01:33:55.611Z,89.7
2017-08-16T01:34:56.721Z,82.3
2017-08-16T01:35:57.524Z,85.8
2017-08-16T01:36:58.259Z,86.5
2017-08-16T01:37:59.085Z,79.9
2017-08-16T01:38:59.820Z,81.1
2017-08-16T01:40:00.870Z,87.8
2017-08-16T01:41:01.608Z,87.7
2017-08-16T01:42:02.407Z,86.4
2017-08-16T01:43:03.149Z,86.5
2017-08-16T01:44:03.908Z,85.8
2017-08-16T01:45:04.709Z,85.2
2017-08-16T01:46:05.453Z,87.3
2017-08-16T01:47:06.271Z,86.3
2017-08-16T01:48:07.394Z,90.3
2017-08-16T01:49:08.201Z,95.1
2017-08-16T01:50:08.943Z,92.1
2017-08-16T01:51:09.744Z,90.2
2017-08-16T01:52:10.479Z,91.0
2017-08-16T01:53:11.570Z,89.2
2017-08-16T01:54:12.330Z,99.8
2017-08-16T01:55:13.067Z,92.7
2017-08-16T01:56:13.822Z,99.2
2017-08-16T01:57:14.570Z,106.1
2017-08-16T01:58:15.731Z,106.4
2017-08-16T01:59:16.476Z,101.6
2017-08-16T02:00:17.226Z,98.7
2017-08-16T02:01:17.986Z,99.2
2017-08-16T02:02:18.781Z,102.9
2017-08-16T02:03:19.824Z,100.8
2017-08-16T02:04:20.621Z,104.0
2017-08-16T02:05:21.442Z,99.3
2017-08-16T02:06:22.283Z,95.7
2017-08-16T02:07:23.081Z,95.6
2017-08-16T02:08:24.132Z,94.7
2017-08-16T02:09:24.913Z,101.2
2017-08-16T02:10:25.652Z,99.0
2017-08-16T02:11:26.473Z,99.7
2017-08-16T02:12:27.221Z,100.9
2017-08-16T02:13:28.416Z,101.2
2017-08-16T02:14:29.160Z,96.2
2017-08-16T02:15:29.899Z,102.6
2017-08-16T02:16:30.640Z,97.9
2017-08-16T02:17:31.389Z,106.6
2017-08-16T02:18:32.430Z,101.1
2017-08-16T02:19:33.190Z,102.7
2017-08-16T02:20:33.933Z,115.7
2017-08-16T02:21:34.676Z,111.2
2017-08-16T02:22:35.461Z,110.2
2017-08-16T02:23:36.580Z,108.5
2017-08-16T02:24:37.328Z,115.4
2017-08-16T02:25:38.072Z,110.9
2017-08-16T02:26:38.894Z,114.1
2017-08-16T02:27:39.630Z,116.2
2017-08-16T02:28:40.538Z,113.3
2017-08-16T02:29:41.341Z,120.6
2017-08-16T02:30:42.080Z,118.1
2017-08-16T02:31:42.831Z,118.0
2017-08-16T02:32:43.559Z,116.8
2017-08-16T02:33:44.551Z,120.5
2017-08-16T02:34:45.289Z,124.9
2017-08-16T02:35:46.031Z,125.0
2017-08-16T02:36:46.788Z,127.1
2017-08-16T02:37:47.561Z,127.1
2017-08-16T02:38:48.693Z,126.4
2017-08-16T02:39:49.510Z,125.3
2017-08-16T02:40:50.249Z,127.2
2017-08-16T02:41:50.991Z,121.8
2017-08-16T02:42:51.803Z,127.5
2017-08-16T02:43:52.916Z,125.8
2017-08-16T02:44:53.703Z,124.7
2017-08-16T02:45:54.437Z,129.7
2017-08-16T02:46:55.185Z,129.9
2017-08-16T02:47:55.944Z,125.6
2017-08-16T02:48:56.989Z,127.6
2017-08-16T02:49:57.758Z,122.4
2017-08-16T02:50:58.584Z,127.3
2017-08-16T02:51:59.333Z,127.0
2017-08-16T02:53:00.077Z,127.1
2017-08-16T02:54:01.235Z,131.1
2017-08-16T02:55:02.049Z,130.2
2017-08-16T02:56:02.853Z,131.7
2017-08-16T02:57:03.595Z,134.1
2017-08-16T02:58:04.345Z,136.4
2017-08-16T02:59:05.453Z,136.7
2017-08-16T03:00:06.180Z,133.9
2017-08-16T03:01:06.946Z,140.1
2017-08-16T03:02:07.690Z,132.4
2017-08-16T03:03:08.423Z,136.0
2017-08-16T03:04:09.364Z,140.0
2017-08-16T03:05:10.100Z,138.7
2017-08-16T03:06:10.845Z,146.8
2017-08-16T03:07:11.677Z,144.1
2017-08-16T03:08:12.492Z,145.3
2017-08-16T03:09:13.607Z,140.5
2017-08-16T03:10:14.345Z,142.1
2017-08-16T03:11:15.185Z,151.2
2017-08-16T03:12:15.921Z,153.2
2017-08-16T03:13:16.660Z,147.1
2017-08-16T03:14:17.700Z,152.5
2017-08-16T03:15:18.451Z,153.4
2017-08-16T03:16:19.190Z,150.9
2017-08-16T03:17:20.078Z,154.3
2017-08-16T03:19:22.914Z,156.9
2017-08-16T03:20:24.966Z,164.1
2017-08-16T03:21:26.383Z,164.0
2017-08-16T03:22:27.436Z,157.1
2017-08-16T03:23:28.199Z,172.6
2017-08-16T03:24:29.162Z,157.3
2017-08-16T03:25:29.896Z,163.6
2017-08-16T03:26:30.640Z,164.5
2017-08-16T03:27:31.383Z,168.1
2017-08-16T03:28:32.130Z,159.0
2017-08-16T03:29:32.879Z,161.9
2017-08-16T03:30:34.021Z,168.9
2017-08-16T03:31:34.763Z,170.5
2017-08-16T03:32:35.567Z,168.9
2017-08-16T03:33:36.307Z,164.4
2017-08-16T03:34:37.061Z,163.4
2017-08-16T03:35:38.199Z,173.8
2017-08-16T03:36:38.940Z,175.6
2017-08-16T03:37:39.689Z,172.8
2017-08-16T03:38:40.493Z,181.1
2017-08-16T03:39:41.242Z,178.9
2017-08-16T03:40:42.333Z,181.0
2017-08-16T03:41:43.073Z,171.9
2017-08-16T03:42:43.890Z,176.8
2017-08-16T03:43:44.628Z,177.7
2017-08-16T03:44:45.375Z,175.9
2017-08-16T03:45:46.393Z,177.3
2017-08-16T03:46:47.137Z,173.3
2017-08-16T03:47:47.941Z,174.1
2017-08-16T03:48:48.750Z,167.5
2017-08-16T03:49:49.514Z,172.6
2017-08-16T03:50:50.509Z,186.5
2017-08-16T03:51:51.249Z,189.4
2017-08-16T03:52:51.994Z,194.2
2017-08-16T03:53:52.750Z,182.8
2017-08-16T03:54:53.490Z,188.8
2017-08-16T03:55:54.542Z,195.3
2017-08-16T03:56:55.350Z,185.0
2017-08-16T03:57:56.104Z,184.7
2017-08-16T03:58:56.849Z,185.4
2017-08-16T03:59:57.585Z,186.8
2017-08-16T04:00:58.769Z,195.0
2017-08-16T04:01:59.525Z,201.1
2017-08-16T04:04:03.395Z,196.0
2017-08-16T04:05:04.092Z,191.1
2017-08-16T04:06:05.309Z,196.1
2017-08-16T04:07:06.062Z,199.2
2017-08-16T04:08:06.879Z,202.2
2017-08-16T04:09:07.625Z,189.3
2017-08-16T04:10:08.454Z,180.5
2017-08-16T04:11:09.453Z,187.7
2017-08-16T04:12:10.201Z,176.5
2017-08-16T04:13:11.003Z,181.6
2017-08-16T04:14:11.821Z,180.3
2017-08-16T04:15:12.584Z,193.4
2017-08-16T04:16:13.671Z,179.9
2017-08-16T04:17:14.469Z,186.3
2017-08-16T04:18:15.209Z,200.0
2017-08-16T04:19:15.949Z,197.8
2017-08-16T04:20:16.693Z,193.1
2017-08-16T04:21:17.751Z,185.6
2017-08-16T04:22:18.502Z,190.8
2017-08-16T04:23:19.311Z,205.2
2017-08-16T04:24:20.058Z,199.5
2017-08-16T04:25:20.805Z,206.5
2017-08-16T04:26:21.851Z,191.9
2017-08-16T04:27:22.685Z,194.0
2017-08-16T04:28:23.475Z,199.2
2017-08-16T04:29:24.282Z,205.7
2017-08-16T04:30:25.093Z,204.2
2017-08-16T04:31:26.297Z,211.0
2017-08-16T04:32:27.116Z,201.9
2017-08-16T04:33:27.901Z,192.6
2017-08-16T04:34:28.650Z,190.8
2017-08-16T04:35:29.399Z,191.6
2017-08-16T04:36:30.551Z,189.3
2017-08-16T04:37:31.360Z,187.7
2017-08-16T04:38:32.109Z,208.9
2017-08-16T04:39:32.860Z,209.1
2017-08-16T04:40:33.614Z,203.6
2017-08-16T04:41:34.750Z,196.8
2017-08-16T04:42:35.562Z,194.9
2017-08-16T04:43:36.381Z,190.8
2017-08-16T04:44:37.124Z,195.2
2017-08-16T04:45:37.872Z,201.7
2017-08-16T04:46:39.730Z,203.6
2017-08-16T04:47:40.430Z,195.2
2017-08-16T04:48:41.176Z,203.2
2017-08-16T04:50:56.191Z,194.4
2017-08-16T04:51:57.338Z,193.9
2017-08-16T04:52:58.099Z,197.7
2017-08-16T04:53:58.841Z,194.6
2017-08-16T04:54:59.591Z,188.4
2017-08-16T04:56:00.321Z,188.0
2017-08-16T04:57:01.270Z,188.9
2017-08-16T04:58:02.024Z,191.9
2017-08-16T04:59:02.767Z,191.8
2017-08-16T05:00:03.562Z,192.9
2017-08-16T05:01:04.317Z,188.2
2017-08-16T05:02:05.262Z,185.8
2017-08-16T05:03:06.090Z,192.0
2017-08-16T05:04:06.841Z,193.4
2017-08-16T05:05:07.656Z,194.5
2017-08-16T05:06:08.490Z,196.3
2017-08-16T05:07:09.538Z,189.2
2017-08-16T05:08:10.299Z,186.3
2017-08-16T05:09:11.040Z,181.3
2017-08-16T05:10:11.799Z,181.8
2017-08-16T05:11:12.589Z,189.0
2017-08-16T05:12:13.640Z,179.1
2017-08-16T05:13:14.380Z,180.5
2017-08-16T05:14:15.125Z,182.6
2017-08-16T05:15:15.873Z,178.7
2017-08-16T05:16:16.625Z,171.3
2017-08-16T05:17:17.878Z,173.8
2017-08-16T05:18:18.632Z,176.3
2017-08-16T05:19:19.453Z,173.3
2017-08-16T05:20:20.250Z,168.4
2017-08-16T05:21:21.005Z,182.4
2017-08-16T05:22:22.052Z,169.5
2017-08-16T05:23:22.795Z,174.3
2017-08-16T05:24:23.552Z,160.3
2017-08-16T05:25:24.391Z,159.2
2017-08-16T05:26:25.213Z,168.2
2017-08-16T05:27:26.354Z,175.2
2017-08-16T05:28:27.100Z,171.8
2017-08-16T05:29:27.850Z,160.2
2017-08-16T05:30:28.608Z,158.1
2017-08-16T05:31:29.411Z,155.6
2017-08-16T05:32:30.701Z,157.3
2017-08-16T05:33:31.451Z,159.6
2017-08-16T05:34:32.211Z,156.6
2017-08-16T05:35:32.991Z,148.0
2017-08-16T05:36:33.736Z,153.8
2017-08-16T05:37:34.880Z,147.5
2017-08-16T05:38:35.628Z,148.4
2017-08-16T05:39:36.376Z,143.5
2017-08-16T05:40:37.171Z,144.0
2017-08-16T05:41:37.925Z,147.7
2017-08-16T05:42:38.743Z,148.0
2017-08-16T05:43:39.492Z,145.7
2017-08-16T05:44:40.339Z,140.8
2017-08-16T05:45:41.091Z,136.5
2017-08-16T05:46:41.838Z,131.7
2017-08-16T05:47:42.938Z,128.0
2017-08-16T05:48:43.759Z,127.1
2017-08-16T05:49:44.573Z,123.3
2017-08-16T05:50:45.345Z,114.8
2017-08-16T05:51:46.091Z,111.1
2017-08-16T05:52:46.843Z,99.5
2017-08-16T05:53:48.143Z,92.9
2017-08-16T05:54:48.891Z,78.6
2017-08-16T05:55:49.640Z,79.0
2017-08-16T05:56:50.396Z,80.5
2017-08-16T05:57:51.141Z,81.8
2017-08-16T05:58:52.141Z,77.9
2017-08-16T05:59:52.928Z,73.8
2017-08-16T06:00:53.682Z,71.0
2017-08-16T06:01:54.521Z,66.5
2017-08-16T06:02:55.350Z,63.6
2017-08-16T06:03:56.510Z,61.6
2017-08-16T06:04:57.260Z,60.1
2017-08-16T06:05:58.016Z,56.7
2017-08-16T06:06:58.729Z,59.0
2017-08-16T06:07:59.487Z,59.7
2017-08-16T06:09:00.280Z,64.0
2017-08-16T06:10:01.029Z,58.9
2017-08-16T06:11:01.969Z,58.6
2017-08-16T06:12:02.719Z,60.3
2017-08-16T06:13:03.514Z,58.2
2017-08-16T06:14:04.346Z,64.1
2017-08-16T06:15:05.092Z,65.1
2017-08-16T06:16:06.258Z,64.1
2017-08-16T06:17:07.007Z,66.2
2017-08-16T06:18:07.791Z,65.5
2017-08-16T06:19:08.624Z,64.9
2017-08-16T06:20:09.410Z,65.4
2017-08-16T06:21:10.450Z,60.9
2017-08-16T06:22:11.196Z,59.5
2017-08-16T06:23:11.999Z,61.5
2017-08-16T06:24:12.760Z,59.2
2017-08-16T06:25:13.505Z,60.7
2017-08-16T06:26:14.548Z,59.3
2017-08-16T06:27:15.282Z,56.6
2017-08-16T06:28:16.024Z,57.8
2017-08-16T06:29:16.814Z,55.1
2017-08-16T06:30:17.560Z,55.9
2017-08-16T06:31:18.657Z,55.3
2017-08-16T06:32:19.400Z,54.4
2017-08-16T06:33:20.233Z,51.9
2017-08-16T06:34:21.040Z,53.1
2017-08-16T06:35:21.782Z,51.7
2017-08-16T06:36:22.934Z,50.9
2017-08-16T06:37:23.762Z,49.7
2017-08-16T06:38:24.579Z,51.5
2017-08-16T06:39:25.316Z,50.5
2017-08-16T06:40:26.059Z,51.5
2017-08-16T06:41:27.202Z,49.8
2017-08-16T06:42:27.944Z,49.1
2017-08-16T06:43:28.709Z,46.8
2017-08-16T06:44:29.499Z,47.9
2017-08-16T06:45:30.308Z,48.0
2017-08-16T06:46:31.258Z,48.9
2017-08-16T06:47:32.014Z,51.6
2017-08-16T06:48:32.824Z,50.3
2017-08-16T06:49:33.572Z,51.5
2017-08-16T06:50:34.366Z,49.0
2017-08-16T06:51:35.428Z,51.5
2017-08-16T06:52:36.241Z,50.8
2017-08-16T06:53:36.980Z,50.5
2017-08-16T06:54:37.805Z,48.0
2017-08-16T06:55:38.561Z,48.0
2017-08-16T06:56:39.313Z,49.6
2017-08-16T06:57:40.059Z,49.2
2017-08-16T06:58:40.800Z,51.7
2017-08-16T06:59:41.559Z,54.1
2017-08-16T07:00:42.311Z,50.2
2017-08-16T07:01:43.380Z,50.3
2017-08-16T07:02:44.127Z,50.0
2017-08-16T07:03:44.874Z,47.8
2017-08-16T07:04:45.674Z,48.5
2017-08-16T07:05:46.477Z,47.2
2017-08-16T07:06:47.630Z,45.4
2017-08-16T07:07:48.378Z,45.7
2017-08-16T07:08:49.135Z,44.7
2017-08-16T07:09:49.954Z,46.7
2017-08-16T07:10:50.735Z,47.3
2017-08-16T07:11:51.472Z,46.0
2017-08-16T07:12:52.300Z,47.4
2017-08-16T07:13:53.380Z,45.7
2017-08-16T07:14:54.124Z,45.3
2017-08-16T07:15:54.868Z,45.2
2017-08-16T07:16:55.620Z,45.3
2017-08-16T07:17:56.366Z,48.8
2017-08-16T07:18:57.533Z,45.9
2017-08-16T07:19:58.335Z,45.4
2017-08-16T07:20:59.146Z,46.6
2017-08-16T07:21:59.969Z,46.9
2017-08-16T07:23:00.706Z,45.9
2017-08-16T07:24:01.755Z,48.5
2017-08-16T07:25:02.571Z,45.7
2017-08-16T07:26:03.312Z,45.7
2017-08-16T07:27:04.123Z,48.5
2017-08-16T07:28:04.871Z,48.0
2017-08-16T07:29:05.618Z,49.3
2017-08-16T07:30:06.795Z,49.5
2017-08-16T07:31:07.494Z,49.9
2017-08-16T07:32:08.240Z,48.5
2017-08-16T07:33:08.982Z,50.6
2017-08-16T07:34:09.723Z,48.3
2017-08-16T07:35:10.944Z,49.5
2017-08-16T07:36:11.768Z,47.2
2017-08-16T07:37:12.509Z,46.6
2017-08-16T07:38:13.255Z,42.4
2017-08-16T07:39:14.002Z,42.8
2017-08-16T07:40:15.229Z,45.1
2017-08-16T07:41:15.983Z,44.8
2017-08-16T07:42:16.780Z,46.2
2017-08-16T07:43:17.529Z,45.0
2017-08-16T07:44:18.281Z,44.7
2017-08-16T07:45:19.032Z,44.7
2017-08-16T07:46:19.847Z,43.3
2017-08-16T07:47:20.949Z,43.5
2017-08-16T07:48:21.725Z,42.8
2017-08-16T07:49:22.533Z,41.9
2017-08-16T07:50:23.332Z,42.3
2017-08-16T07:51:24.151Z,40.1
2017-08-16T07:52:25.239Z,40.1
2017-08-16T07:53:25.977Z,40.9
2017-08-16T07:54:26.809Z,39.4
2017-08-16T07:55:27.560Z,39.3
2017-08-16T07:56:28.352Z,38.3
2017-08-16T07:57:29.489Z,37.6
2017-08-16T07:58:30.239Z,38.0
2017-08-16T07:59:30.988Z,36.2
2017-08-16T08:00:31.738Z,37.2
2017-08-16T08:01:32.491Z,35.5
2017-08-16T08:02:33.719Z,35.6
2017-08-16T08:03:34.460Z,33.3
2017-08-16T08:04:35.287Z,33.7
2017-08-16T08:05:36.110Z,33.4
2017-08-16T08:06:36.859Z,32.7
2017-08-16T08:07:38.009Z,33.7
2017-08-16T08:08:38.764Z,32.8
2017-08-16T08:09:39.601Z,31.3
2017-08-16T08:10:40.405Z,30.6
2017-08-16T08:11:41.243Z,30.6
2017-08-16T08:12:42.048Z,29.2
2017-08-16T08:13:42.801Z,29.3
2017-08-16T08:14:43.558Z,30.0
2017-08-16T08:15:44.352Z,28.7
2017-08-16T08:16:45.111Z,25.9
2017-08-16T08:17:46.217Z,26.4
2017-08-16T08:18:46.988Z,21.9
2017-08-16T08:19:47.788Z,21.8
2017-08-16T08:20:48.530Z,19.9
2017-08-16T08:21:49.279Z,20.4
2017-08-16T08:22:50.418Z,20.8
2017-08-16T08:23:51.179Z,19.1
2017-08-16T08:24:52.001Z,19.8
2017-08-16T08:25:52.731Z,16.7
2017-08-16T08:26:53.474Z,16.8
2017-08-16T08:27:54.628Z,18.9
2017-08-16T08:28:55.422Z,20.2
2017-08-16T08:29:56.169Z,20.1
2017-08-16T08:30:56.915Z,19.7
2017-08-16T08:31:57.660Z,19.8
2017-08-16T08:32:58.841Z,19.3
2017-08-16T08:33:59.657Z,20.0
2017-08-16T08:35:00.547Z,19.2
2017-08-16T08:36:01.347Z,19.9
2017-08-16T08:37:02.148Z,18.2
2017-08-16T08:38:02.898Z,20.3
2017-08-16T08:39:04.108Z,19.6
2017-08-16T08:40:04.857Z,20.2
2017-08-16T08:41:05.620Z,19.6
2017-08-16T08:42:06.362Z,20.2
2017-08-16T08:43:07.104Z,18.7
2017-08-16T08:44:08.155Z,18.5
2017-08-16T08:45:08.910Z,18.2
2017-08-16T08:46:09.730Z,17.4
2017-08-16T08:47:10.477Z,16.9
2017-08-16T08:48:11.282Z,18.3
2017-08-16T08:49:12.328Z,18.6
2017-08-16T08:50:13.089Z,18.2
2017-08-16T08:51:13.900Z,21.2
2017-08-16T08:52:14.670Z,19.7
2017-08-16T08:53:15.426Z,21.6
2017-08-16T08:54:16.523Z,21.8
2017-08-16T08:55:17.300Z,22.1
2017-08-16T08:56:18.072Z,23.8
2017-08-16T08:57:18.822Z,22.4
2017-08-16T08:58:19.567Z,22.9
2017-08-16T08:59:20.671Z,23.7
2017-08-16T09:00:21.483Z,24.4
2017-08-16T09:01:22.306Z,23.4
2017-08-16T09:02:23.105Z,24.8
2017-08-16T09:03:23.926Z,25.4
2017-08-16T09:04:24.684Z,24.4
2017-08-16T09:05:25.492Z,24.9
2017-08-16T09:06:26.182Z,23.6
2017-08-16T09:07:26.935Z,23.7
2017-08-16T09:08:27.775Z,23.8
2017-08-16T09:09:28.913Z,22.6
2017-08-16T09:10:29.659Z,22.2
2017-08-16T09:11:30.414Z,20.3
2017-08-16T09:12:31.235Z,18.4
2017-08-16T09:13:32.009Z,19.3
2017-08-16T09:14:32.832Z,18.7
2017-08-16T09:15:34.049Z,18.2
2017-08-16T09:16:34.794Z,18.3
2017-08-16T09:17:35.636Z,16.7
2017-08-16T09:18:36.457Z,15.6
2017-08-16T09:19:37.211Z,16.5
2017-08-16T09:20:38.393Z,16.1
2017-08-16T09:21:39.216Z,15.6
2017-08-16T09:22:40.030Z,14.9
2017-08-16T09:23:40.769Z,15.0
2017-08-16T09:24:41.520Z,15.3
2017-08-16T09:25:42.505Z,15.1
2017-08-16T09:26:43.260Z,13.9
2017-08-16T09:27:44.006Z,13.1
2017-08-16T09:28:44.747Z,12.3
2017-08-16T09:29:45.562Z,13.2
2017-08-16T09:30:46.661Z,12.2
2017-08-16T09:31:47.428Z,13.2
2017-08-16T09:32:48.237Z,13.7
2017-08-16T09:33:48.992Z,13.0
2017-08-16T09:34:49.822Z,13.5
2017-08-16T09:35:50.991Z,12.9
2017-08-16T09:36:51.840Z,12.8
2017-08-16T09:37:52.666Z,12.9
2017-08-16T09:38:53.404Z,14.1
2017-08-16T09:39:54.167Z,14.2
2017-08-16T09:40:55.280Z,14.5
2017-08-16T09:41:56.019Z,14.8
2017-08-16T09:42:56.760Z,13.9
2017-08-16T09:43:57.603Z,13.8
2017-08-16T09:44:58.381Z,13.1
2017-08-16T09:45:59.349Z,13.6
2017-08-16T09:47:00.094Z,13.2
2017-08-16T09:48:00.838Z,12.8
2017-08-16T09:49:01.590Z,11.8
2017-08-16T09:50:02.401Z,11.2
2017-08-16T09:51:03.625Z,10.6
2017-08-16T09:52:04.385Z,10.9
2017-08-16T09:53:05.130Z,11.4
2017-08-16T09:54:05.886Z,11.3
2017-08-16T09:55:06.710Z,10.6
2017-08-16T09:56:07.509Z,11.2
2017-08-16T09:57:08.259Z,11.3
2017-08-16T09:58:09.308Z,9.4
2017-08-16T09:59:10.091Z,10.1
2017-08-16T10:00:10.851Z,10.4
2017-08-16T10:01:11.606Z,9.3
2017-08-16T10:02:12.395Z,9.5
2017-08-16T10:03:13.141Z,10.2
2017-08-16T10:04:14.298Z,9.9
2017-08-16T10:05:15.059Z,9.6
2017-08-16T10:06:15.799Z,9.3
2017-08-16T10:07:16.552Z,10.1
2017-08-16T10:08:17.311Z,9.4
2017-08-16T10:09:18.326Z,8.6
2017-08-16T10:10:19.160Z,8.1
2017-08-16T10:11:19.979Z,8.5
2017-08-16T10:12:20.729Z,7.2
2017-08-16T10:13:21.470Z,7.3
2017-08-16T10:14:22.488Z,6.7
2017-08-16T10:15:23.249Z,6.8
2017-08-16T10:16:23.983Z,5.8
2017-08-16T10:17:24.741Z,6.5
2017-08-16T10:18:25.485Z,5.7
2017-08-16T10:19:26.589Z,6.1
2017-08-16T10:20:27.419Z,5.4
2017-08-16T10:21:28.162Z,6.4
2017-08-16T10:22:28.970Z,7.3
2017-08-16T10:23:29.716Z,7.4
2017-08-16T10:24:30.720Z,8.2
2017-08-16T10:25:31.579Z,6.9
2017-08-16T10:26:32.358Z,5.0
2017-08-16T10:27:33.108Z,4.6
2017-08-16T10:28:33.927Z,4.8
2017-08-16T10:29:34.680Z,4.9
2017-08-16T10:30:35.740Z,4.7
2017-08-16T10:31:36.556Z,4.6
2017-08-16T10:32:37.359Z,4.5
2017-08-16T10:33:38.099Z,6.0
2017-08-16T10:34:38.851Z,6.1
2017-08-16T10:35:40.004Z,6.0
2017-08-16T10:36:40.840Z,5.6
2017-08-16T10:37:41.652Z,5.4
2017-08-16T10:38:42.448Z,5.3
2017-08-16T10:39:43.200Z,5.4
2017-08-16T10:40:44.234Z,5.8
2017-08-16T10:41:45.054Z,5.8
2017-08-16T10:42:45.862Z,4.9
2017-08-16T10:43:46.614Z,5.1
2017-08-16T10:44:47.384Z,4.0
2017-08-16T10:45:48.508Z,3.1
2017-08-16T10:46:49.249Z,2.9
2017-08-16T10:47:49.999Z,2.4
2017-08-16T10:48:50.757Z,2.8
2017-08-16T10:49:51.574Z,2.4
2017-08-16T10:50:52.624Z,2.2
2017-08-16T10:51:53.370Z,2.4
2017-08-16T10:52:54.209Z,2.8
2017-08-16T10:53:55.012Z,2.7
2017-08-16T10:54:55.826Z,3.2
2017-08-16T10:55:57.079Z,2.9
2017-08-16T10:56:57.832Z,3.5
2017-08-16T10:57:58.639Z,3.3
2017-08-16T10:58:59.390Z,3.4
2017-08-16T11:00:00.202Z,3.1
2017-08-16T11:01:01.404Z,3.0
2017-08-16T11:02:02.133Z,3.0
2017-08-16T11:03:02.869Z,2.5
2017-08-16T11:04:03.591Z,2.9
2017-08-16T11:05:04.408Z,2.6
2017-08-16T11:06:05.472Z,3.3
2017-08-16T11:07:06.208Z,3.0
2017-08-16T11:08:06.958Z,3.2
2017-08-16T11:09:07.717Z,3.8
2017-08-16T11:10:08.513Z,3.4
2017-08-16T11:11:09.612Z,3.0
2017-08-16T11:12:10.358Z,2.8
2017-08-16T11:13:11.114Z,3.4
2017-08-16T11:14:11.913Z,2.9
2017-08-16T11:15:12.661Z,3.0
2017-08-16T11:16:13.779Z,3.4
2017-08-16T11:17:14.579Z,2.9
2017-08-16T11:18:15.412Z,3.1
2017-08-16T11:19:16.159Z,2.7
2017-08-16T11:20:16.917Z,2.8
2017-08-16T11:21:18.123Z,2.7
2017-08-16T11:22:18.875Z,4.6
2017-08-16T11:23:19.629Z,4.0
2017-08-16T11:24:20.371Z,3.0
2017-08-16T11:25:21.114Z,2.9
2017-08-16T11:26:22.189Z,3.0
2017-08-16T11:27:22.940Z,3.4
2017-08-16T11:28:23.689Z,3.2
2017-08-16T11:29:24.452Z,3.0
2017-08-16T11:30:25.302Z,2.5
2017-08-16T11:31:26.503Z,2.7
2017-08-16T11:32:27.241Z,2.3
2017-08-16T11:33:27.990Z,2.2
2017-08-16T11:34:28.824Z,2.5
2017-08-16T11:35:29.568Z,2.2
2017-08-16T11:36:30.800Z,2.9
2017-08-16T11:37:31.627Z,2.7
2017-08-16T11:38:32.370Z,2.7
2017-08-16T11:39:33.126Z,2.7
2017-08-16T11:40:33.936Z,2.5
2017-08-16T11:41:35.029Z,2.7
2017-08-16T11:42:35.783Z,2.1
2017-08-16T11:43:36.537Z,2.6
2017-08-16T11:44:37.298Z,2.1
2017-08-16T11:45:38.245Z,2.4
2017-08-16T11:46:38.958Z,2.4
2017-08-16T11:47:40.003Z,2.0
2017-08-16T11:48:40.750Z,2.0
2017-08-16T11:49:41.500Z,1.9
2017-08-16T11:50:42.737Z,2.3
2017-08-16T11:51:43.441Z,2.3
2017-08-16T11:52:44.497Z,2.6
2017-08-16T11:53:45.250Z,2.7
2017-08-16T11:54:45.998Z,2.5
2017-08-16T11:55:46.753Z,2.7
2017-08-16T11:56:47.552Z,2.9
2017-08-16T11:57:48.776Z,2.8
2017-08-16T11:58:49.600Z,3.8
2017-08-16T11:59:50.423Z,2.6
2017-08-16T12:00:51.265Z,2.7
2017-08-16T12:01:52.007Z,2.8
2017-08-16T12:02:53.159Z,3.0
2017-08-16T12:03:53.919Z,2.8
2017-08-16T12:04:54.735Z,2.9
2017-08-16T12:05:55.484Z,2.7
2017-08-16T12:07:57.548Z,2.6
2017-08-16T12:08:58.290Z,2.8
2017-08-16T12:09:59.061Z,2.6
2017-08-16T12:10:59.897Z,2.7
2017-08-16T12:12:00.614Z,3.1
2017-08-16T12:13:01.758Z,2.8
2017-08-16T12:14:02.586Z,3.1
2017-08-16T12:15:03.349Z,3.0
2017-08-16T12:16:04.084Z,3.2
2017-08-16T12:17:04.893Z,2.8
2017-08-16T12:18:05.642Z,2.7
2017-08-16T12:19:06.834Z,2.5
2017-08-16T12:20:07.693Z,2.4
2017-08-16T12:21:08.448Z,2.9
2017-08-16T12:22:09.207Z,3.1
2017-08-16T12:23:10.040Z,2.6
2017-08-16T12:24:11.280Z,2.6
2017-08-16T12:25:12.119Z,2.7
2017-08-16T12:26:12.869Z,2.4
2017-08-16T12:27:13.611Z,2.8
2017-08-16T12:28:14.453Z,2.8
2017-08-16T12:29:15.206Z,2.9
2017-08-16T12:30:16.370Z,2.8
2017-08-16T12:31:17.197Z,3.2
2017-08-16T12:32:17.955Z,2.7
2017-08-16T12:33:18.788Z,3.2
2017-08-16T12:34:19.536Z,3.0
2017-08-16T12:35:20.688Z,3.3
2017-08-16T12:36:21.429Z,2.7
2017-08-16T12:37:22.208Z,3.1
2017-08-16T12:38:22.949Z,3.5
2017-08-16T12:39:23.699Z,3.1
2017-08-16T12:40:24.898Z,3.6
2017-08-16T12:41:25.666Z,2.7
2017-08-16T12:42:26.428Z,3.1
2017-08-16T12:43:27.268Z,3.2
2017-08-16T12:44:28.088Z,3.2
2017-08-16T12:45:29.193Z,3.1
2017-08-16T12:46:30.030Z,3.3
2017-08-16T12:47:30.863Z,3.2
2017-08-16T12:48:31.610Z,3.8
2017-08-16T12:49:32.419Z,3.0
2017-08-16T12:50:33.172Z,2.9
2017-08-16T12:51:34.398Z,3.0
2017-08-16T12:52:35.143Z,2.6
2017-08-16T12:53:35.895Z,3.1
2017-08-16T12:54:36.707Z,3.6
2017-08-16T12:55:37.544Z,3.3
2017-08-16T12:56:38.769Z,3.8
2017-08-16T12:57:39.589Z,4.2
2017-08-16T12:58:40.361Z,3.4
2017-08-16T12:59:41.332Z,3.2
2017-08-16T13:00:42.230Z,3.0
2017-08-16T13:01:43.308Z,3.1
2017-08-16T13:02:44.060Z,3.2
2017-08-16T13:03:45.152Z,3.1
2017-08-16T13:04:45.937Z,2.5
2017-08-16T13:05:46.760Z,2.5
2017-08-16T13:06:47.507Z,3.3
2017-08-16T13:07:48.559Z,3.4
2017-08-16T13:08:49.394Z,3.7
2017-08-16T13:09:50.550Z,3.1
2017-08-16T13:10:51.359Z,2.0
2017-08-16T13:11:52.114Z,2.4
2017-08-16T13:12:52.860Z,2.5
2017-08-16T13:13:53.606Z,3.7
2017-08-16T13:14:54.731Z,4.9
2017-08-16T13:15:55.529Z,3.8
2017-08-16T13:16:56.271Z,3.6
2017-08-16T13:17:57.010Z,3.2
2017-08-16T13:18:57.826Z,3.5
2017-08-16T13:20:00.138Z,3.2
2017-08-16T13:21:00.994Z,3.0
2017-08-16T13:22:01.909Z,2.6
2017-08-16T13:23:02.659Z,2.1
2017-08-16T13:24:03.403Z,2.3
2017-08-16T13:25:04.528Z,2.7
2017-08-16T13:26:05.266Z,3.3
2017-08-16T13:27:06.022Z,2.7
2017-08-16T13:28:06.853Z,3.2
2017-08-16T13:29:07.703Z,2.7
2017-08-16T13:30:08.853Z,2.5
2017-08-16T13:31:09.598Z,2.7
2017-08-16T13:32:10.346Z,3.6
2017-08-16T13:33:11.092Z,2.9
2017-08-16T13:34:11.859Z,3.0